sensor_id;sensor_type;location;lat;lon;timestamp;P1;durP1;ratioP1;P2;durP2;ratioP2
42944;SDS011;28584;42.636;23.294;2022-07-23T00:02:07;7.97;;;4.75;;
42944;SDS011;28584;42.636;23.294;2022-07-23T00:04:33;11.07;;;4.95;;
42944;SDS011;28584;42.636;23.294;2022-07-23T00:06:58;6.82;;;4.68;;
42944;SDS011;28584;42.636;23.294;2022-07-23T00:09:24;8.32;;;4.90;;
42944;SDS011;28584;42.636;23.294;2022-07-23T00:11:49;7.78;;;5.05;;
42944;SDS011;28584;42.636;23.294;2022-07-23T00:14:15;7.10;;;5.70;;
42944;SDS011;28584;42.636;23.294;2022-07-23T00:16:40;8.95;;;5.55;;
42944;SDS011;28584;42.636;23.294;2022-07-23T00:19:05;7.97;;;5.03;;
42944;SDS011;28584;42.636;23.294;2022-07-23T00:21:31;8.93;;;4.90;;
42944;SDS011;28584;42.636;23.294;2022-07-23T00:23:56;7.35;;;5.60;;
42944;SDS011;28584;42.636;23.294;2022-07-23T00:26:22;8.70;;;5.63;;
42944;SDS011;28584;42.636;23.294;2022-07-23T00:28:47;14.55;;;6.05;;
42944;SDS011;28584;42.636;23.294;2022-07-23T00:31:13;8.05;;;5.72;;
42944;SDS011;28584;42.636;23.294;2022-07-23T00:33:38;6.63;;;5.28;;
42944;SDS011;28584;42.636;23.294;2022-07-23T00:36:04;6.35;;;4.85;;
42944;SDS011;28584;42.636;23.294;2022-07-23T00:38:29;9.93;;;6.00;;
42944;SDS011;28584;42.636;23.294;2022-07-23T00:40:55;7.40;;;5.80;;
42944;SDS011;28584;42.636;23.294;2022-07-23T00:43:20;9.48;;;6.60;;
42944;SDS011;28584;42.636;23.294;2022-07-23T00:45:47;8.95;;;6.30;;
42944;SDS011;28584;42.636;23.294;2022-07-23T00:48:12;8.52;;;6.15;;
42944;SDS011;28584;42.636;23.294;2022-07-23T00:50:38;11.57;;;6.22;;
42944;SDS011;28584;42.636;23.294;2022-07-23T00:53:03;9.63;;;6.65;;
42944;SDS011;28584;42.636;23.294;2022-07-23T00:55:30;8.43;;;6.55;;
42944;SDS011;28584;42.636;23.294;2022-07-23T00:57:55;10.38;;;6.05;;
42944;SDS011;28584;42.636;23.294;2022-07-23T01:00:22;8.95;;;6.25;;
42944;SDS011;28584;42.636;23.294;2022-07-23T01:02:47;11.43;;;6.60;;
42944;SDS011;28584;42.636;23.294;2022-07-23T01:05:13;11.25;;;6.53;;
42944;SDS011;28584;42.636;23.294;2022-07-23T01:07:39;8.65;;;6.47;;
42944;SDS011;28584;42.636;23.294;2022-07-23T01:10:05;8.13;;;5.65;;
42944;SDS011;28584;42.636;23.294;2022-07-23T01:12:51;9.85;;;6.38;;
42944;SDS011;28584;42.636;23.294;2022-07-23T01:15:17;10.70;;;5.97;;
42944;SDS011;28584;42.636;23.294;2022-07-23T01:17:42;8.93;;;6.18;;
42944;SDS011;28584;42.636;23.294;2022-07-23T01:20:07;10.48;;;5.97;;
42944;SDS011;28584;42.636;23.294;2022-07-23T01:22:33;8.43;;;5.85;;
42944;SDS011;28584;42.636;23.294;2022-07-23T01:24:59;8.13;;;5.80;;
42944;SDS011;28584;42.636;23.294;2022-07-23T01:27:24;11.98;;;6.03;;
42944;SDS011;28584;42.636;23.294;2022-07-23T01:29:49;9.57;;;5.80;;
42944;SDS011;28584;42.636;23.294;2022-07-23T01:32:15;7.13;;;6.03;;
42944;SDS011;28584;42.636;23.294;2022-07-23T01:34:40;8.20;;;5.15;;
42944;SDS011;28584;42.636;23.294;2022-07-23T01:37:06;8.60;;;5.70;;
42944;SDS011;28584;42.636;23.294;2022-07-23T01:39:31;8.75;;;5.53;;
42944;SDS011;28584;42.636;23.294;2022-07-23T01:41:57;8.32;;;5.80;;
42944;SDS011;28584;42.636;23.294;2022-07-23T01:44:22;11.38;;;5.60;;
42944;SDS011;28584;42.636;23.294;2022-07-23T01:46:48;7.28;;;5.25;;
42944;SDS011;28584;42.636;23.294;2022-07-23T01:49:13;10.32;;;5.70;;
42944;SDS011;28584;42.636;23.294;2022-07-23T01:51:38;7.68;;;6.30;;
42944;SDS011;28584;42.636;23.294;2022-07-23T01:54:24;9.60;;;5.82;;
42944;SDS011;28584;42.636;23.294;2022-07-23T01:56:49;11.25;;;5.90;;
42944;SDS011;28584;42.636;23.294;2022-07-23T01:59:14;12.00;;;6.28;;
42944;SDS011;28584;42.636;23.294;2022-07-23T02:01:41;8.98;;;5.65;;
42944;SDS011;28584;42.636;23.294;2022-07-23T02:04:06;10.07;;;6.65;;
42944;SDS011;28584;42.636;23.294;2022-07-23T02:06:32;9.40;;;5.95;;
42944;SDS011;28584;42.636;23.294;2022-07-23T02:08:57;10.68;;;5.95;;
42944;SDS011;28584;42.636;23.294;2022-07-23T02:11:22;7.50;;;4.95;;
42944;SDS011;28584;42.636;23.294;2022-07-23T02:13:48;10.60;;;5.65;;
42944;SDS011;28584;42.636;23.294;2022-07-23T02:16:13;9.40;;;5.97;;
42944;SDS011;28584;42.636;23.294;2022-07-23T02:18:39;9.02;;;5.47;;
42944;SDS011;28584;42.636;23.294;2022-07-23T02:21:04;11.60;;;5.90;;
42944;SDS011;28584;42.636;23.294;2022-07-23T02:23:30;10.05;;;5.57;;
42944;SDS011;28584;42.636;23.294;2022-07-23T02:25:55;8.77;;;5.93;;
42944;SDS011;28584;42.636;23.294;2022-07-23T02:28:20;8.20;;;5.68;;
42944;SDS011;28584;42.636;23.294;2022-07-23T02:30:46;10.93;;;5.43;;
42944;SDS011;28584;42.636;23.294;2022-07-23T02:33:11;8.18;;;5.72;;
42944;SDS011;28584;42.636;23.294;2022-07-23T02:35:37;11.40;;;6.43;;
42944;SDS011;28584;42.636;23.294;2022-07-23T02:38:02;6.75;;;5.57;;
42944;SDS011;28584;42.636;23.294;2022-07-23T02:40:27;8.80;;;6.18;;
42944;SDS011;28584;42.636;23.294;2022-07-23T02:42:53;9.15;;;5.60;;
42944;SDS011;28584;42.636;23.294;2022-07-23T02:45:18;11.07;;;5.97;;
42944;SDS011;28584;42.636;23.294;2022-07-23T02:47:44;9.48;;;5.88;;
42944;SDS011;28584;42.636;23.294;2022-07-23T02:50:09;8.43;;;5.78;;
42944;SDS011;28584;42.636;23.294;2022-07-23T02:52:34;11.73;;;5.57;;
42944;SDS011;28584;42.636;23.294;2022-07-23T02:55:00;9.35;;;5.63;;
42944;SDS011;28584;42.636;23.294;2022-07-23T02:57:25;9.07;;;5.30;;
42944;SDS011;28584;42.636;23.294;2022-07-23T02:59:51;7.30;;;4.95;;
42944;SDS011;28584;42.636;23.294;2022-07-23T03:02:16;11.13;;;5.45;;
42944;SDS011;28584;42.636;23.294;2022-07-23T03:04:42;7.80;;;4.88;;
42944;SDS011;28584;42.636;23.294;2022-07-23T03:07:07;7.63;;;4.97;;
42944;SDS011;28584;42.636;23.294;2022-07-23T03:09:33;10.10;;;5.47;;
42944;SDS011;28584;42.636;23.294;2022-07-23T03:11:58;11.45;;;5.13;;
42944;SDS011;28584;42.636;23.294;2022-07-23T03:14:23;11.05;;;6.05;;
42944;SDS011;28584;42.636;23.294;2022-07-23T03:16:49;11.15;;;4.93;;
42944;SDS011;28584;42.636;23.294;2022-07-23T03:19:15;6.00;;;5.10;;
42944;SDS011;28584;42.636;23.294;2022-07-23T03:21:40;8.80;;;5.40;;
42944;SDS011;28584;42.636;23.294;2022-07-23T03:24:09;10.48;;;5.68;;
42944;SDS011;28584;42.636;23.294;2022-07-23T03:26:35;10.85;;;5.60;;
42944;SDS011;28584;42.636;23.294;2022-07-23T03:29:00;9.32;;;5.18;;
42944;SDS011;28584;42.636;23.294;2022-07-23T03:31:28;10.70;;;5.60;;
42944;SDS011;28584;42.636;23.294;2022-07-23T03:33:55;9.95;;;5.32;;
42944;SDS011;28584;42.636;23.294;2022-07-23T03:36:20;6.05;;;5.30;;
42944;SDS011;28584;42.636;23.294;2022-07-23T03:38:45;7.95;;;4.97;;
42944;SDS011;28584;42.636;23.294;2022-07-23T03:41:11;11.07;;;5.55;;
42944;SDS011;28584;42.636;23.294;2022-07-23T03:43:36;7.18;;;5.07;;
42944;SDS011;28584;42.636;23.294;2022-07-23T03:46:02;9.80;;;5.35;;
42944;SDS011;28584;42.636;23.294;2022-07-23T03:48:27;8.77;;;5.30;;
42944;SDS011;28584;42.636;23.294;2022-07-23T03:50:53;8.40;;;5.35;;
42944;SDS011;28584;42.636;23.294;2022-07-23T03:53:18;9.77;;;6.00;;
42944;SDS011;28584;42.636;23.294;2022-07-23T03:55:43;11.02;;;7.78;;
42944;SDS011;28584;42.636;23.294;2022-07-23T03:58:09;10.10;;;6.93;;
42944;SDS011;28584;42.636;23.294;2022-07-23T04:00:34;12.32;;;7.85;;
42944;SDS011;28584;42.636;23.294;2022-07-23T04:03:00;13.50;;;8.02;;
42944;SDS011;28584;42.636;23.294;2022-07-23T04:05:25;9.48;;;7.00;;
42944;SDS011;28584;42.636;23.294;2022-07-23T04:07:51;11.18;;;7.70;;
42944;SDS011;28584;42.636;23.294;2022-07-23T04:10:16;12.88;;;8.07;;
42944;SDS011;28584;42.636;23.294;2022-07-23T04:12:42;12.95;;;7.97;;
42944;SDS011;28584;42.636;23.294;2022-07-23T04:15:08;16.42;;;7.70;;
42944;SDS011;28584;42.636;23.294;2022-07-23T04:17:34;13.30;;;7.60;;
42944;SDS011;28584;42.636;23.294;2022-07-23T04:19:59;11.77;;;6.82;;
42944;SDS011;28584;42.636;23.294;2022-07-23T04:22:25;11.48;;;7.38;;
42944;SDS011;28584;42.636;23.294;2022-07-23T04:24:50;9.75;;;6.80;;
42944;SDS011;28584;42.636;23.294;2022-07-23T04:27:16;8.93;;;6.32;;
42944;SDS011;28584;42.636;23.294;2022-07-23T04:29:41;8.90;;;6.60;;
42944;SDS011;28584;42.636;23.294;2022-07-23T04:32:07;10.80;;;6.43;;
42944;SDS011;28584;42.636;23.294;2022-07-23T04:34:32;12.98;;;6.63;;
42944;SDS011;28584;42.636;23.294;2022-07-23T04:36:58;8.25;;;6.22;;
42944;SDS011;28584;42.636;23.294;2022-07-23T04:39:23;12.43;;;7.78;;
42944;SDS011;28584;42.636;23.294;2022-07-23T04:41:48;10.45;;;6.90;;
42944;SDS011;28584;42.636;23.294;2022-07-23T04:44:14;16.75;;;7.70;;
42944;SDS011;28584;42.636;23.294;2022-07-23T04:46:39;18.42;;;7.72;;
42944;SDS011;28584;42.636;23.294;2022-07-23T04:49:05;20.35;;;8.30;;
42944;SDS011;28584;42.636;23.294;2022-07-23T04:51:30;14.18;;;7.85;;
42944;SDS011;28584;42.636;23.294;2022-07-23T04:53:56;17.33;;;7.35;;
42944;SDS011;28584;42.636;23.294;2022-07-23T04:56:22;11.75;;;7.57;;
42944;SDS011;28584;42.636;23.294;2022-07-23T04:58:48;15.10;;;8.10;;
42944;SDS011;28584;42.636;23.294;2022-07-23T05:01:13;12.48;;;7.95;;
42944;SDS011;28584;42.636;23.294;2022-07-23T05:03:39;13.35;;;8.35;;
42944;SDS011;28584;42.636;23.294;2022-07-23T05:06:04;10.98;;;7.97;;
42944;SDS011;28584;42.636;23.294;2022-07-23T05:08:30;8.93;;;7.78;;
42944;SDS011;28584;42.636;23.294;2022-07-23T05:10:55;13.05;;;8.27;;
42944;SDS011;28584;42.636;23.294;2022-07-23T05:13:21;10.77;;;7.90;;
42944;SDS011;28584;42.636;23.294;2022-07-23T05:15:46;10.10;;;8.02;;
42944;SDS011;28584;42.636;23.294;2022-07-23T05:18:12;11.98;;;7.88;;
42944;SDS011;28584;42.636;23.294;2022-07-23T05:20:38;15.07;;;8.10;;
42944;SDS011;28584;42.636;23.294;2022-07-23T05:23:03;11.48;;;8.07;;
42944;SDS011;28584;42.636;23.294;2022-07-23T05:25:29;9.23;;;7.40;;
42944;SDS011;28584;42.636;23.294;2022-07-23T05:27:54;15.05;;;7.93;;
42944;SDS011;28584;42.636;23.294;2022-07-23T05:30:20;11.43;;;7.38;;
42944;SDS011;28584;42.636;23.294;2022-07-23T05:32:45;12.43;;;7.55;;
42944;SDS011;28584;42.636;23.294;2022-07-23T05:35:11;15.77;;;7.65;;
42944;SDS011;28584;42.636;23.294;2022-07-23T05:37:37;13.55;;;8.10;;
42944;SDS011;28584;42.636;23.294;2022-07-23T05:40:03;10.95;;;7.53;;
42944;SDS011;28584;42.636;23.294;2022-07-23T05:42:33;11.77;;;6.97;;
42944;SDS011;28584;42.636;23.294;2022-07-23T05:45:00;14.35;;;7.60;;
42944;SDS011;28584;42.636;23.294;2022-07-23T05:47:25;12.50;;;7.85;;
42944;SDS011;28584;42.636;23.294;2022-07-23T05:49:51;10.88;;;7.10;;
42944;SDS011;28584;42.636;23.294;2022-07-23T05:52:16;10.93;;;7.40;;
42944;SDS011;28584;42.636;23.294;2022-07-23T05:54:42;14.68;;;7.75;;
42944;SDS011;28584;42.636;23.294;2022-07-23T05:57:08;10.52;;;6.82;;
42944;SDS011;28584;42.636;23.294;2022-07-23T05:59:33;10.73;;;6.55;;
42944;SDS011;28584;42.636;23.294;2022-07-23T06:01:59;12.68;;;7.32;;
42944;SDS011;28584;42.636;23.294;2022-07-23T06:04:24;13.32;;;6.97;;
42944;SDS011;28584;42.636;23.294;2022-07-23T06:06:49;12.25;;;7.15;;
42944;SDS011;28584;42.636;23.294;2022-07-23T06:09:15;11.27;;;6.75;;
42944;SDS011;28584;42.636;23.294;2022-07-23T06:11:40;16.27;;;6.95;;
42944;SDS011;28584;42.636;23.294;2022-07-23T06:14:06;14.35;;;7.22;;
42944;SDS011;28584;42.636;23.294;2022-07-23T06:16:31;9.82;;;6.90;;
42944;SDS011;28584;42.636;23.294;2022-07-23T06:18:57;9.45;;;7.10;;
42944;SDS011;28584;42.636;23.294;2022-07-23T06:21:22;17.90;;;7.22;;
42944;SDS011;28584;42.636;23.294;2022-07-23T06:23:48;18.63;;;6.70;;
42944;SDS011;28584;42.636;23.294;2022-07-23T06:26:13;11.68;;;7.78;;
42944;SDS011;28584;42.636;23.294;2022-07-23T06:28:39;11.40;;;6.90;;
42944;SDS011;28584;42.636;23.294;2022-07-23T06:31:04;12.93;;;7.10;;
42944;SDS011;28584;42.636;23.294;2022-07-23T06:33:29;13.32;;;7.20;;
42944;SDS011;28584;42.636;23.294;2022-07-23T06:35:55;10.95;;;7.22;;
42944;SDS011;28584;42.636;23.294;2022-07-23T06:38:20;14.32;;;7.65;;
42944;SDS011;28584;42.636;23.294;2022-07-23T06:40:46;12.88;;;8.32;;
42944;SDS011;28584;42.636;23.294;2022-07-23T06:43:11;13.70;;;6.90;;
42944;SDS011;28584;42.636;23.294;2022-07-23T06:45:37;13.13;;;7.15;;
42944;SDS011;28584;42.636;23.294;2022-07-23T06:48:02;12.32;;;7.70;;
42944;SDS011;28584;42.636;23.294;2022-07-23T06:50:28;13.90;;;7.63;;
42944;SDS011;28584;42.636;23.294;2022-07-23T06:52:54;13.50;;;7.65;;
42944;SDS011;28584;42.636;23.294;2022-07-23T06:55:19;12.23;;;6.55;;
42944;SDS011;28584;42.636;23.294;2022-07-23T06:57:45;18.85;;;7.30;;
42944;SDS011;28584;42.636;23.294;2022-07-23T07:00:11;18.02;;;7.50;;
42944;SDS011;28584;42.636;23.294;2022-07-23T07:02:36;13.88;;;7.47;;
42944;SDS011;28584;42.636;23.294;2022-07-23T07:05:02;11.00;;;6.70;;
42944;SDS011;28584;42.636;23.294;2022-07-23T07:07:28;14.05;;;7.30;;
42944;SDS011;28584;42.636;23.294;2022-07-23T07:09:53;12.45;;;6.93;;
42944;SDS011;28584;42.636;23.294;2022-07-23T07:12:19;13.85;;;6.90;;
42944;SDS011;28584;42.636;23.294;2022-07-23T07:14:44;13.25;;;6.50;;
42944;SDS011;28584;42.636;23.294;2022-07-23T07:17:10;11.27;;;6.47;;
42944;SDS011;28584;42.636;23.294;2022-07-23T07:19:36;13.73;;;7.13;;
42944;SDS011;28584;42.636;23.294;2022-07-23T07:22:01;14.55;;;7.53;;
42944;SDS011;28584;42.636;23.294;2022-07-23T07:24:27;12.73;;;7.78;;
42944;SDS011;28584;42.636;23.294;2022-07-23T07:26:52;12.73;;;7.55;;
42944;SDS011;28584;42.636;23.294;2022-07-23T07:29:18;11.27;;;6.82;;
42944;SDS011;28584;42.636;23.294;2022-07-23T07:31:43;17.13;;;7.63;;
42944;SDS011;28584;42.636;23.294;2022-07-23T07:34:09;15.00;;;6.75;;
42944;SDS011;28584;42.636;23.294;2022-07-23T07:36:34;17.85;;;7.07;;
42944;SDS011;28584;42.636;23.294;2022-07-23T07:39:02;10.45;;;6.95;;
42944;SDS011;28584;42.636;23.294;2022-07-23T07:41:29;17.25;;;6.88;;
42944;SDS011;28584;42.636;23.294;2022-07-23T07:43:55;11.93;;;7.07;;
42944;SDS011;28584;42.636;23.294;2022-07-23T07:46:21;13.30;;;7.38;;
42944;SDS011;28584;42.636;23.294;2022-07-23T07:48:49;13.38;;;7.22;;
42944;SDS011;28584;42.636;23.294;2022-07-23T07:51:16;13.10;;;6.95;;
42944;SDS011;28584;42.636;23.294;2022-07-23T07:53:42;14.07;;;6.82;;
42944;SDS011;28584;42.636;23.294;2022-07-23T07:56:07;11.73;;;7.40;;
42944;SDS011;28584;42.636;23.294;2022-07-23T07:58:33;14.25;;;7.50;;
42944;SDS011;28584;42.636;23.294;2022-07-23T08:00:58;12.32;;;7.40;;
42944;SDS011;28584;42.636;23.294;2022-07-23T08:03:25;12.43;;;7.63;;
42944;SDS011;28584;42.636;23.294;2022-07-23T08:05:51;12.18;;;7.80;;
42944;SDS011;28584;42.636;23.294;2022-07-23T08:08:16;13.07;;;7.25;;
42944;SDS011;28584;42.636;23.294;2022-07-23T08:10:42;13.90;;;7.75;;
42944;SDS011;28584;42.636;23.294;2022-07-23T08:13:10;14.02;;;8.23;;
42944;SDS011;28584;42.636;23.294;2022-07-23T08:15:39;12.00;;;7.13;;
42944;SDS011;28584;42.636;23.294;2022-07-23T08:18:05;10.57;;;7.38;;
42944;SDS011;28584;42.636;23.294;2022-07-23T08:20:30;13.45;;;7.88;;
42944;SDS011;28584;42.636;23.294;2022-07-23T08:22:57;9.18;;;7.20;;
42944;SDS011;28584;42.636;23.294;2022-07-23T08:25:28;15.55;;;7.88;;
42944;SDS011;28584;42.636;23.294;2022-07-23T08:27:56;13.93;;;7.68;;
42944;SDS011;28584;42.636;23.294;2022-07-23T08:30:22;12.40;;;7.50;;
42944;SDS011;28584;42.636;23.294;2022-07-23T08:33:04;14.48;;;7.70;;
42944;SDS011;28584;42.636;23.294;2022-07-23T08:35:36;12.60;;;8.10;;
42944;SDS011;28584;42.636;23.294;2022-07-23T08:38:04;17.52;;;8.02;;
42944;SDS011;28584;42.636;23.294;2022-07-23T08:40:33;18.42;;;7.43;;
42944;SDS011;28584;42.636;23.294;2022-07-23T08:43:00;12.82;;;7.57;;
42944;SDS011;28584;42.636;23.294;2022-07-23T08:45:30;14.38;;;7.53;;
42944;SDS011;28584;42.636;23.294;2022-07-23T08:47:57;15.02;;;7.75;;
42944;SDS011;28584;42.636;23.294;2022-07-23T08:50:26;14.85;;;7.68;;
42944;SDS011;28584;42.636;23.294;2022-07-23T08:52:52;12.20;;;7.20;;
42944;SDS011;28584;42.636;23.294;2022-07-23T08:55:19;12.50;;;8.15;;
42944;SDS011;28584;42.636;23.294;2022-07-23T08:57:51;15.55;;;7.93;;
42944;SDS011;28584;42.636;23.294;2022-07-23T09:00:18;12.23;;;8.18;;
42944;SDS011;28584;42.636;23.294;2022-07-23T09:02:45;14.20;;;8.10;;
42944;SDS011;28584;42.636;23.294;2022-07-23T09:05:12;15.73;;;8.05;;
42944;SDS011;28584;42.636;23.294;2022-07-23T09:08:03;13.75;;;7.32;;
42944;SDS011;28584;42.636;23.294;2022-07-23T09:10:54;10.68;;;7.82;;
42944;SDS011;28584;42.636;23.294;2022-07-23T09:15:52;12.55;;;7.57;;
42944;SDS011;28584;42.636;23.294;2022-07-23T09:18:19;16.13;;;7.82;;
42944;SDS011;28584;42.636;23.294;2022-07-23T09:20:56;13.75;;;7.38;;
42944;SDS011;28584;42.636;23.294;2022-07-23T09:23:37;11.93;;;6.95;;
42944;SDS011;28584;42.636;23.294;2022-07-23T09:29:01;15.90;;;7.75;;
42944;SDS011;28584;42.636;23.294;2022-07-23T09:36:44;10.90;;;7.60;;
42944;SDS011;28584;42.636;23.294;2022-07-23T09:39:10;11.70;;;6.78;;
42944;SDS011;28584;42.636;23.294;2022-07-23T09:41:41;13.10;;;6.38;;
42944;SDS011;28584;42.636;23.294;2022-07-23T09:44:15;9.02;;;6.78;;
42944;SDS011;28584;42.636;23.294;2022-07-23T09:46:43;10.30;;;6.50;;
42944;SDS011;28584;42.636;23.294;2022-07-23T09:49:15;8.27;;;5.60;;
42944;SDS011;28584;42.636;23.294;2022-07-23T09:51:49;10.85;;;5.85;;
42944;SDS011;28584;42.636;23.294;2022-07-23T09:54:21;13.70;;;5.88;;
42944;SDS011;28584;42.636;23.294;2022-07-23T09:56:47;10.25;;;5.70;;
42944;SDS011;28584;42.636;23.294;2022-07-23T09:59:14;6.68;;;5.45;;
42944;SDS011;28584;42.636;23.294;2022-07-23T10:01:43;11.25;;;5.03;;
42944;SDS011;28584;42.636;23.294;2022-07-23T10:04:10;9.68;;;5.82;;
42944;SDS011;28584;42.636;23.294;2022-07-23T10:06:37;9.88;;;5.93;;
42944;SDS011;28584;42.636;23.294;2022-07-23T10:09:05;7.47;;;5.93;;
42944;SDS011;28584;42.636;23.294;2022-07-23T10:11:33;9.35;;;6.03;;
42944;SDS011;28584;42.636;23.294;2022-07-23T10:13:59;10.25;;;5.93;;
42944;SDS011;28584;42.636;23.294;2022-07-23T10:16:28;11.88;;;6.05;;
42944;SDS011;28584;42.636;23.294;2022-07-23T10:18:54;9.02;;;6.10;;
42944;SDS011;28584;42.636;23.294;2022-07-23T10:21:40;11.65;;;6.40;;
42944;SDS011;28584;42.636;23.294;2022-07-23T10:24:18;10.27;;;5.80;;
42944;SDS011;28584;42.636;23.294;2022-07-23T10:29:39;12.15;;;6.15;;
42944;SDS011;28584;42.636;23.294;2022-07-23T10:37:38;12.02;;;6.05;;
42944;SDS011;28584;42.636;23.294;2022-07-23T10:40:11;11.38;;;6.00;;
42944;SDS011;28584;42.636;23.294;2022-07-23T10:42:38;11.20;;;5.55;;
42944;SDS011;28584;42.636;23.294;2022-07-23T10:47:52;10.85;;;6.13;;
42944;SDS011;28584;42.636;23.294;2022-07-23T10:50:18;12.90;;;5.32;;
42944;SDS011;28584;42.636;23.294;2022-07-23T10:55:40;15.77;;;6.35;;
42944;SDS011;28584;42.636;23.294;2022-07-23T10:58:28;10.68;;;5.75;;
42944;SDS011;28584;42.636;23.294;2022-07-23T11:04:02;10.52;;;5.85;;
42944;SDS011;28584;42.636;23.294;2022-07-23T11:09:27;9.80;;;5.78;;
42944;SDS011;28584;42.636;23.294;2022-07-23T11:17:25;9.73;;;5.43;;
42944;SDS011;28584;42.636;23.294;2022-07-23T11:25:10;12.10;;;6.13;;
42944;SDS011;28584;42.636;23.294;2022-07-23T11:27:43;16.20;;;6.10;;
42944;SDS011;28584;42.636;23.294;2022-07-23T11:32:54;12.05;;;5.97;;
42944;SDS011;28584;42.636;23.294;2022-07-23T11:35:46;14.77;;;5.30;;
42944;SDS011;28584;42.636;23.294;2022-07-23T11:38:25;11.00;;;5.60;;
42944;SDS011;28584;42.636;23.294;2022-07-23T11:40:52;14.90;;;5.28;;
42944;SDS011;28584;42.636;23.294;2022-07-23T11:43:22;10.65;;;4.63;;
42944;SDS011;28584;42.636;23.294;2022-07-23T11:45:49;14.25;;;5.32;;
42944;SDS011;28584;42.636;23.294;2022-07-23T11:48:21;10.90;;;5.18;;
42944;SDS011;28584;42.636;23.294;2022-07-23T11:50:49;13.05;;;4.95;;
42944;SDS011;28584;42.636;23.294;2022-07-23T11:55:47;21.02;;;5.15;;
42944;SDS011;28584;42.636;23.294;2022-07-23T11:58:13;18.58;;;5.75;;
42944;SDS011;28584;42.636;23.294;2022-07-23T12:00:40;12.27;;;4.97;;
42944;SDS011;28584;42.636;23.294;2022-07-23T12:03:06;18.20;;;5.75;;
42944;SDS011;28584;42.636;23.294;2022-07-23T12:05:33;16.42;;;5.47;;
42944;SDS011;28584;42.636;23.294;2022-07-23T12:08:00;11.25;;;4.70;;
42944;SDS011;28584;42.636;23.294;2022-07-23T12:10:41;14.88;;;5.57;;
42944;SDS011;28584;42.636;23.294;2022-07-23T12:15:47;11.80;;;5.22;;
42944;SDS011;28584;42.636;23.294;2022-07-23T12:18:22;15.00;;;5.72;;
42944;SDS011;28584;42.636;23.294;2022-07-23T12:20:50;14.98;;;5.57;;
42944;SDS011;28584;42.636;23.294;2022-07-23T12:23:22;15.00;;;5.72;;
42944;SDS011;28584;42.636;23.294;2022-07-23T12:25:50;16.25;;;5.32;;
42944;SDS011;28584;42.636;23.294;2022-07-23T12:35:48;19.40;;;5.97;;
42944;SDS011;28584;42.636;23.294;2022-07-23T12:38:16;13.70;;;5.47;;
42944;SDS011;28584;42.636;23.294;2022-07-23T12:43:23;11.77;;;4.75;;
42944;SDS011;28584;42.636;23.294;2022-07-23T12:48:28;14.48;;;4.90;;
42944;SDS011;28584;42.636;23.294;2022-07-23T12:56:15;19.92;;;5.07;;
42944;SDS011;28584;42.636;23.294;2022-07-23T12:58:49;19.23;;;5.25;;
42944;SDS011;28584;42.636;23.294;2022-07-23T13:03:54;22.13;;;5.70;;
42944;SDS011;28584;42.636;23.294;2022-07-23T13:06:27;16.50;;;5.70;;
42944;SDS011;28584;42.636;23.294;2022-07-23T13:08:54;15.38;;;5.43;;
42944;SDS011;28584;42.636;23.294;2022-07-23T13:11:20;15.52;;;4.65;;
42944;SDS011;28584;42.636;23.294;2022-07-23T13:13:45;16.92;;;4.90;;
42944;SDS011;28584;42.636;23.294;2022-07-23T13:16:11;13.15;;;5.03;;
42944;SDS011;28584;42.636;23.294;2022-07-23T13:18:36;14.90;;;4.50;;
42944;SDS011;28584;42.636;23.294;2022-07-23T13:21:02;15.20;;;4.90;;
42944;SDS011;28584;42.636;23.294;2022-07-23T13:23:27;15.55;;;4.95;;
42944;SDS011;28584;42.636;23.294;2022-07-23T13:25:53;15.45;;;5.20;;
42944;SDS011;28584;42.636;23.294;2022-07-23T13:28:20;17.20;;;4.72;;
42944;SDS011;28584;42.636;23.294;2022-07-23T13:30:46;17.50;;;5.43;;
42944;SDS011;28584;42.636;23.294;2022-07-23T13:33:14;10.50;;;4.63;;
42944;SDS011;28584;42.636;23.294;2022-07-23T13:35:44;16.10;;;5.63;;
42944;SDS011;28584;42.636;23.294;2022-07-23T13:38:10;14.13;;;5.03;;
42944;SDS011;28584;42.636;23.294;2022-07-23T13:40:37;14.95;;;4.95;;
42944;SDS011;28584;42.636;23.294;2022-07-23T13:43:05;13.05;;;5.25;;
42944;SDS011;28584;42.636;23.294;2022-07-23T13:45:32;17.60;;;4.90;;
42944;SDS011;28584;42.636;23.294;2022-07-23T13:47:58;12.52;;;4.90;;
42944;SDS011;28584;42.636;23.294;2022-07-23T13:50:23;13.75;;;5.70;;
42944;SDS011;28584;42.636;23.294;2022-07-23T13:52:49;12.77;;;5.60;;
42944;SDS011;28584;42.636;23.294;2022-07-23T13:55:14;15.57;;;5.85;;
42944;SDS011;28584;42.636;23.294;2022-07-23T13:57:40;14.38;;;5.53;;
42944;SDS011;28584;42.636;23.294;2022-07-23T14:00:06;12.52;;;5.38;;
42944;SDS011;28584;42.636;23.294;2022-07-23T14:02:35;15.05;;;5.43;;
42944;SDS011;28584;42.636;23.294;2022-07-23T14:05:02;13.27;;;5.45;;
42944;SDS011;28584;42.636;23.294;2022-07-23T14:07:29;13.27;;;5.65;;
42944;SDS011;28584;42.636;23.294;2022-07-23T14:09:54;11.60;;;5.65;;
42944;SDS011;28584;42.636;23.294;2022-07-23T14:12:20;12.60;;;5.40;;
42944;SDS011;28584;42.636;23.294;2022-07-23T14:14:45;10.30;;;5.05;;
42944;SDS011;28584;42.636;23.294;2022-07-23T14:17:11;12.40;;;5.18;;
42944;SDS011;28584;42.636;23.294;2022-07-23T14:19:36;16.15;;;5.82;;
42944;SDS011;28584;42.636;23.294;2022-07-23T14:22:02;13.10;;;4.50;;
42944;SDS011;28584;42.636;23.294;2022-07-23T14:24:27;11.77;;;4.70;;
42944;SDS011;28584;42.636;23.294;2022-07-23T14:26:53;8.77;;;5.03;;
42944;SDS011;28584;42.636;23.294;2022-07-23T14:29:18;9.57;;;5.05;;
42944;SDS011;28584;42.636;23.294;2022-07-23T14:31:44;12.15;;;5.32;;
42944;SDS011;28584;42.636;23.294;2022-07-23T14:34:09;11.80;;;4.85;;
42944;SDS011;28584;42.636;23.294;2022-07-23T14:36:36;12.40;;;5.10;;
42944;SDS011;28584;42.636;23.294;2022-07-23T14:39:02;12.93;;;5.15;;
42944;SDS011;28584;42.636;23.294;2022-07-23T14:41:27;11.38;;;4.95;;
42944;SDS011;28584;42.636;23.294;2022-07-23T14:43:53;13.98;;;5.60;;
42944;SDS011;28584;42.636;23.294;2022-07-23T14:46:18;12.18;;;4.85;;
42944;SDS011;28584;42.636;23.294;2022-07-23T14:48:44;12.90;;;4.97;;
42944;SDS011;28584;42.636;23.294;2022-07-23T14:51:09;12.25;;;5.20;;
42944;SDS011;28584;42.636;23.294;2022-07-23T14:53:34;12.52;;;4.82;;
42944;SDS011;28584;42.636;23.294;2022-07-23T14:56:00;9.23;;;4.82;;
42944;SDS011;28584;42.636;23.294;2022-07-23T14:58:25;19.55;;;5.38;;
42944;SDS011;28584;42.636;23.294;2022-07-23T15:00:51;16.25;;;5.50;;
42944;SDS011;28584;42.636;23.294;2022-07-23T15:03:16;13.27;;;5.43;;
42944;SDS011;28584;42.636;23.294;2022-07-23T15:05:42;10.98;;;5.05;;
42944;SDS011;28584;42.636;23.294;2022-07-23T15:08:07;10.77;;;5.38;;
42944;SDS011;28584;42.636;23.294;2022-07-23T15:10:33;10.73;;;5.35;;
42944;SDS011;28584;42.636;23.294;2022-07-23T15:12:59;8.95;;;4.22;;
42944;SDS011;28584;42.636;23.294;2022-07-23T15:15:24;15.43;;;5.38;;
42944;SDS011;28584;42.636;23.294;2022-07-23T15:17:50;14.35;;;5.93;;
42944;SDS011;28584;42.636;23.294;2022-07-23T15:20:15;9.27;;;4.95;;
42944;SDS011;28584;42.636;23.294;2022-07-23T15:22:41;13.25;;;5.40;;
42944;SDS011;28584;42.636;23.294;2022-07-23T15:25:07;11.10;;;4.78;;
42944;SDS011;28584;42.636;23.294;2022-07-23T15:27:33;10.45;;;5.03;;
42944;SDS011;28584;42.636;23.294;2022-07-23T15:29:58;13.75;;;4.88;;
42944;SDS011;28584;42.636;23.294;2022-07-23T15:32:24;14.20;;;5.30;;
42944;SDS011;28584;42.636;23.294;2022-07-23T15:34:52;10.43;;;4.63;;